Smithers Airport

Airport
ICAO code: 
CYYD
IATA Code: 
YYD
Summary
ICAO Region: 
NAM
Territory: 
Location: 
Smithers, British Columbia,
Serving: 
Smithers
Elevation: 
1716 ft
Coordinates: 
Aerial View: 
54° 49' 28.744" N, 127° 11' 0.449" W
Metar
Observation
CYYD 271900Z 16009KT 25SM FEW008 SCT026 BKN035 M01/M03 A2962 RMK SF1SC3SC3 SLP053
Station
Smithers, B. C.
Date/Time
2021-11-27 19:00:00
Wind direction
160°
Wind speed
09 kts
Lowest cloud amount
few clouds
Temperature
-1°C
Dew point
-3°C
Humidity
86%
Weather condition
n/a

Description

Smithers Airport, is located 2 nm north of Smithers, British Columbia, Canada.

Climatology

Humid Continental climate (Köppen climate classification Dfb) - Variable weather patterns and a large seasonal temperature variance. Summers are often warm and humid with frequent thunderstorms and winters can be very cold with frequent snowfall and persistent snow cover.

Runways

Designator Length Width Surface Rops
15/33 1524 46 ASP Yes/Yes
Airport map: 
Aerial View: 

SKYbrary Partners:

Safety knowledge contributed by: